createdAt,value
2017-08-26T08:10:56.566Z,70.40
2017-08-26T08:13:23.242Z,70.40
2017-08-26T08:15:50.696Z,70.40
2017-08-26T08:18:17.371Z,70.40
2017-08-26T08:20:44.130Z,70.40
2017-08-26T08:23:10.818Z,70.50
2017-08-26T08:25:38.756Z,70.60
2017-08-26T08:28:05.458Z,70.60
2017-08-26T08:30:32.126Z,70.60
2017-08-26T08:32:58.837Z,70.70
2017-08-26T08:35:25.525Z,70.80
2017-08-26T08:37:52.226Z,70.90
2017-08-26T08:40:18.898Z,70.90
2017-08-26T08:42:45.606Z,70.90
2017-08-26T08:45:12.279Z,71.10
2017-08-26T08:47:38.985Z,71.10
2017-08-26T08:50:05.673Z,71.10
2017-08-26T08:52:32.342Z,71.10
2017-08-26T08:54:59.039Z,71.20
2017-08-26T08:57:25.742Z,71.20
2017-08-26T08:59:52.441Z,71.20
2017-08-26T09:02:19.122Z,71.30
2017-08-26T09:04:45.813Z,71.30
2017-08-26T09:07:12.495Z,71.50
2017-08-26T09:12:22.618Z,71.50
2017-08-26T09:14:49.333Z,71.60
2017-08-26T09:17:16.003Z,71.60
2017-08-26T09:19:42.682Z,71.70
2017-08-26T09:22:09.358Z,71.70
2017-08-26T09:24:36.026Z,71.70
2017-08-26T09:27:02.698Z,71.90
2017-08-26T09:29:29.366Z,72.00
2017-08-26T09:31:56.104Z,72.00
2017-08-26T09:34:22.798Z,71.90
2017-08-26T09:36:49.506Z,72.10
2017-08-26T09:42:05.262Z,72.10
2017-08-26T09:44:31.938Z,72.00
2017-08-26T09:46:58.712Z,72.20
2017-08-26T09:49:25.393Z,72.20
2017-08-26T09:51:52.062Z,72.20
2017-08-26T09:54:18.729Z,72.30
2017-08-26T09:56:45.400Z,72.30
2017-08-26T09:59:12.106Z,72.40
2017-08-26T10:01:38.817Z,72.40
2017-08-26T10:04:05.509Z,72.50
2017-08-26T10:06:32.178Z,72.30
2017-08-26T10:11:47.238Z,72.50
2017-08-26T10:14:13.942Z,72.60
2017-08-26T10:16:40.605Z,72.60
2017-08-26T10:19:07.314Z,73.00
2017-08-26T10:21:33.994Z,72.60
2017-08-26T10:24:00.674Z,72.80
2017-08-26T10:26:27.343Z,72.70
2017-08-26T10:28:54.054Z,72.60
2017-08-26T10:31:20.725Z,73.10
2017-08-26T10:33:48.180Z,72.80
2017-08-26T10:36:14.894Z,72.90
2017-08-26T10:38:41.570Z,72.80
2017-08-26T10:41:08.290Z,72.70
2017-08-26T10:43:34.966Z,73.10
2017-08-26T10:46:01.677Z,72.70
2017-08-26T10:48:28.387Z,72.90
2017-08-26T10:50:55.076Z,72.90
2017-08-26T10:53:21.754Z,73.00
2017-08-26T10:55:48.435Z,72.80
2017-08-26T10:58:15.123Z,73.10
2017-08-26T11:00:41.798Z,73.20
2017-08-26T11:03:08.519Z,73.00
2017-08-26T11:05:35.201Z,73.00
2017-08-26T11:08:01.877Z,73.60
2017-08-26T11:10:28.761Z,73.20
2017-08-26T11:12:55.442Z,73.20
2017-08-26T11:15:22.105Z,73.20
2017-08-26T11:17:48.773Z,73.40
2017-08-26T11:20:15.441Z,73.50
2017-08-26T11:22:42.110Z,73.30
2017-08-26T11:25:08.798Z,73.10
2017-08-26T11:27:35.490Z,73.20
2017-08-26T11:30:02.197Z,73.40
2017-08-26T11:32:28.867Z,73.70
2017-08-26T11:34:55.542Z,73.10
2017-08-26T11:37:22.214Z,74.10
2017-08-26T11:42:27.927Z,73.30
2017-08-26T11:44:54.607Z,73.40
2017-08-26T11:47:21.278Z,73.20
2017-08-26T11:49:47.953Z,73.40
2017-08-26T11:52:14.622Z,73.70
2017-08-26T11:54:41.300Z,73.10
2017-08-26T11:57:07.976Z,73.50
2017-08-26T11:59:34.646Z,73.30
2017-08-26T12:02:01.345Z,73.20
2017-08-26T12:04:28.018Z,73.10
2017-08-26T12:06:54.699Z,73.30
2017-08-26T12:12:10.682Z,73.00
2017-08-26T12:14:37.359Z,73.10
2017-08-26T12:17:04.093Z,73.10
2017-08-26T12:19:30.761Z,73.60
2017-08-26T12:21:57.443Z,73.10
2017-08-26T12:24:24.114Z,73.00
2017-08-26T12:26:50.783Z,73.20
2017-08-26T12:29:17.449Z,73.30
2017-08-26T12:31:44.120Z,73.20
2017-08-26T12:34:10.842Z,73.30
2017-08-26T12:36:37.514Z,73.20
2017-08-26T12:41:54.250Z,73.20
2017-08-26T12:44:20.965Z,73.20
2017-08-26T12:46:47.630Z,73.10
2017-08-26T12:49:14.303Z,73.30
2017-08-26T12:51:40.977Z,73.30
2017-08-26T12:54:07.658Z,73.30
2017-08-26T12:56:34.330Z,73.50
2017-08-26T12:59:01.950Z,73.00
2017-08-26T13:01:28.618Z,73.20
2017-08-26T13:03:55.301Z,73.30
2017-08-26T13:06:21.969Z,73.30
2017-08-26T13:08:48.643Z,73.30
2017-08-26T13:11:15.370Z,73.20
2017-08-26T13:13:42.047Z,73.30
2017-08-26T13:16:08.719Z,73.30
2017-08-26T13:18:35.390Z,73.30
2017-08-26T13:21:02.877Z,73.30
2017-08-26T13:23:29.546Z,73.50
2017-08-26T13:25:56.252Z,73.30
2017-08-26T13:28:22.928Z,73.30
2017-08-26T13:30:49.602Z,73.30
2017-08-26T13:33:16.396Z,73.40
2017-08-26T13:35:43.064Z,73.40
2017-08-26T13:38:09.775Z,73.40
2017-08-26T13:40:36.441Z,73.10
2017-08-26T13:43:03.143Z,73.10
2017-08-26T13:45:29.813Z,73.40
2017-08-26T13:47:56.541Z,73.30
2017-08-26T13:50:23.210Z,73.30
2017-08-26T13:52:49.990Z,73.10
2017-08-26T13:55:16.664Z,73.20
2017-08-26T13:57:43.326Z,73.20
2017-08-26T14:00:10.014Z,73.30
2017-08-26T14:02:36.686Z,73.20
2017-08-26T14:05:03.361Z,73.40
2017-08-26T14:07:30.030Z,73.50
2017-08-26T14:09:56.741Z,73.30
2017-08-26T14:12:23.414Z,73.40
2017-08-26T14:14:50.084Z,73.40
2017-08-26T14:17:16.766Z,73.50
2017-08-26T14:19:43.457Z,73.50
2017-08-26T14:22:10.121Z,73.30
2017-08-26T14:24:36.786Z,73.40
2017-08-26T14:27:03.464Z,73.40
2017-08-26T14:29:30.130Z,73.30
2017-08-26T14:31:56.802Z,73.40
2017-08-26T14:34:23.479Z,73.60
2017-08-26T14:36:50.150Z,73.30
2017-08-26T14:39:16.843Z,73.30
2017-08-26T14:41:43.542Z,73.50
2017-08-26T14:44:10.209Z,73.50
2017-08-26T14:46:36.878Z,73.80
2017-08-26T14:49:03.546Z,73.80
2017-08-26T14:51:30.217Z,73.80
2017-08-26T14:53:56.894Z,73.80
2017-08-26T14:56:23.570Z,73.60
2017-08-26T14:58:50.235Z,73.80
2017-08-26T15:01:16.913Z,74.30
2017-08-26T15:03:43.613Z,74.10
2017-08-26T15:06:10.298Z,74.00
2017-08-26T15:08:37.006Z,74.30
2017-08-26T15:11:03.674Z,74.60
2017-08-26T15:13:30.342Z,74.30
2017-08-26T15:15:57.041Z,75.30
2017-08-26T15:18:23.717Z,74.40
2017-08-26T15:20:50.962Z,74.40
2017-08-26T15:23:17.645Z,74.80
2017-08-26T15:25:44.346Z,75.10
2017-08-26T15:28:11.022Z,74.80
2017-08-26T15:30:37.717Z,75.10
2017-08-26T15:33:04.387Z,74.80
2017-08-26T15:35:31.097Z,75.10
2017-08-26T15:37:57.769Z,75.60
2017-08-26T15:40:24.445Z,75.60
2017-08-26T15:42:51.126Z,75.30
2017-08-26T15:45:17.794Z,75.90
2017-08-26T15:47:44.490Z,75.30
2017-08-26T15:50:11.161Z,75.90
2017-08-26T15:52:37.887Z,75.70
2017-08-26T15:55:04.564Z,76.00
2017-08-26T15:57:31.274Z,76.00
2017-08-26T15:59:57.940Z,76.30
2017-08-26T16:02:24.649Z,76.40
2017-08-26T16:04:51.330Z,76.30
2017-08-26T16:07:18.014Z,76.40
2017-08-26T16:12:31.850Z,76.60
2017-08-26T16:14:58.534Z,76.60
2017-08-26T16:17:25.203Z,76.30
2017-08-26T16:19:51.902Z,76.30
2017-08-26T16:22:18.574Z,76.30
2017-08-26T16:24:45.270Z,76.50
2017-08-26T16:27:11.950Z,76.70
2017-08-26T16:29:38.645Z,76.90
2017-08-26T16:32:05.318Z,76.90
2017-08-26T16:34:32.013Z,76.70
2017-08-26T16:37:38.075Z,76.90
2017-08-26T16:40:10.326Z,76.60
2017-08-26T16:42:37.014Z,76.80
2017-08-26T16:45:03.696Z,76.50
2017-08-26T16:47:30.359Z,76.90
2017-08-26T16:49:57.035Z,76.90
2017-08-26T16:52:23.738Z,76.80
2017-08-26T16:54:50.410Z,76.30
2017-08-26T16:57:17.108Z,76.80
2017-08-26T16:59:43.790Z,76.90
2017-08-26T17:02:10.486Z,76.70
2017-08-26T17:04:37.170Z,76.80
2017-08-26T17:07:03.887Z,76.80
2017-08-26T17:09:30.558Z,76.80
2017-08-26T17:11:57.226Z,76.60
2017-08-26T17:14:23.901Z,76.80
2017-08-26T17:16:50.573Z,76.70
2017-08-26T17:19:17.291Z,76.80
2017-08-26T17:21:43.959Z,76.70
2017-08-26T17:24:10.670Z,76.70
2017-08-26T17:26:37.337Z,76.70
2017-08-26T17:29:04.033Z,76.80
2017-08-26T17:31:30.734Z,76.70
2017-08-26T17:33:57.437Z,76.70
2017-08-26T17:36:24.101Z,76.70
2017-08-26T17:38:50.811Z,76.70
2017-08-26T17:41:17.734Z,76.80
2017-08-26T17:43:44.402Z,76.80
2017-08-26T17:46:11.073Z,76.70
2017-08-26T17:48:37.757Z,76.80
2017-08-26T17:51:04.429Z,76.80
2017-08-26T17:53:31.093Z,76.80
2017-08-26T17:55:57.766Z,76.80
2017-08-26T17:58:24.426Z,76.80
2017-08-26T18:00:51.094Z,76.90
2017-08-26T18:03:17.768Z,76.90
2017-08-26T18:05:44.482Z,76.90
2017-08-26T18:08:11.149Z,76.90
2017-08-26T18:10:37.821Z,76.90
2017-08-26T18:13:04.486Z,76.90
2017-08-26T18:15:31.161Z,76.90
2017-08-26T18:17:57.825Z,76.90
2017-08-26T18:20:24.498Z,76.90
2017-08-26T18:22:51.170Z,77.00
2017-08-26T18:25:17.842Z,77.00
2017-08-26T18:27:44.537Z,77.00
2017-08-26T18:30:11.205Z,76.90
2017-08-26T18:32:37.941Z,76.90
2017-08-26T18:35:04.606Z,76.90
2017-08-26T18:37:31.275Z,76.90
2017-08-26T18:39:57.946Z,76.90
2017-08-26T18:42:24.649Z,76.90
2017-08-26T18:44:51.353Z,76.90
2017-08-26T18:47:18.034Z,76.90
2017-08-26T18:49:44.734Z,76.90
2017-08-26T18:52:11.402Z,76.90
2017-08-26T18:54:38.101Z,76.90
2017-08-26T18:57:04.774Z,77.00
2017-08-26T18:59:31.470Z,77.00
2017-08-26T19:01:58.130Z,76.90
2017-08-26T19:04:24.846Z,76.90
2017-08-26T19:06:51.549Z,76.90
2017-08-26T19:09:18.254Z,76.90
2017-08-26T19:11:44.953Z,77.00
2017-08-26T19:14:16.094Z,76.90
2017-08-26T19:16:42.766Z,76.90
2017-08-26T19:19:09.442Z,76.90
2017-08-26T19:21:36.110Z,76.80
2017-08-26T19:24:02.777Z,76.80
2017-08-26T19:26:29.698Z,76.80
2017-08-26T19:28:56.401Z,76.60
2017-08-26T19:31:23.093Z,76.60
2017-08-26T19:33:49.766Z,76.40
2017-08-26T19:36:16.476Z,76.50
2017-08-26T19:38:43.146Z,76.50
2017-08-26T19:41:09.859Z,76.40
2017-08-26T19:43:36.550Z,76.30
2017-08-26T19:46:03.229Z,76.20
2017-08-26T19:48:29.893Z,76.20
2017-08-26T19:50:57.134Z,76.10
2017-08-26T19:53:23.840Z,76.10
2017-08-26T19:55:50.517Z,76.10
2017-08-26T19:58:17.217Z,76.10
2017-08-26T20:00:43.898Z,76.10
2017-08-26T20:03:10.590Z,76.10
2017-08-26T20:05:37.266Z,75.90
2017-08-26T20:08:03.930Z,76.10
2017-08-26T20:10:30.600Z,76.10
2017-08-26T20:12:57.266Z,76.10
2017-08-26T20:15:23.953Z,76.10
2017-08-26T20:17:50.624Z,76.10
2017-08-26T20:20:17.337Z,76.10
2017-08-26T20:22:44.006Z,75.90
2017-08-26T20:25:10.705Z,76.10
2017-08-26T20:27:38.138Z,75.90
2017-08-26T20:30:04.839Z,75.90
2017-08-26T20:32:31.535Z,75.90
2017-08-26T20:34:58.205Z,75.80
2017-08-26T20:37:24.865Z,75.90
2017-08-26T20:39:51.536Z,75.80
2017-08-26T20:42:18.226Z,75.90
2017-08-26T20:44:44.901Z,75.80
2017-08-26T20:47:11.595Z,75.90
2017-08-26T20:49:38.253Z,75.60
2017-08-26T20:52:04.956Z,75.80
2017-08-26T20:54:31.625Z,75.90
2017-08-26T20:56:58.326Z,75.90
2017-08-26T20:59:25.025Z,75.90
2017-08-26T21:01:51.696Z,75.90
2017-08-26T21:04:18.365Z,75.90
2017-08-26T21:06:45.034Z,75.90
2017-08-26T21:12:00.365Z,75.90
2017-08-26T21:14:27.060Z,75.90
2017-08-26T21:16:53.730Z,75.80
2017-08-26T21:19:20.429Z,75.80
2017-08-26T21:21:47.093Z,75.90
2017-08-26T21:24:13.813Z,75.80
2017-08-26T21:26:40.482Z,75.60
2017-08-26T21:29:07.151Z,75.60
2017-08-26T21:31:33.818Z,75.60
2017-08-26T21:34:00.477Z,75.80
2017-08-26T21:36:27.550Z,75.60
2017-08-26T21:38:54.218Z,75.80
2017-08-26T21:41:20.902Z,75.60
2017-08-26T21:43:47.575Z,75.80
2017-08-26T21:46:14.250Z,75.80
2017-08-26T21:48:40.918Z,75.80
2017-08-26T21:51:07.581Z,75.80
2017-08-26T21:53:34.267Z,75.90
2017-08-26T21:56:00.950Z,75.90
2017-08-26T21:58:27.695Z,75.60
2017-08-26T22:00:54.387Z,75.60
2017-08-26T22:03:21.095Z,75.80
2017-08-26T22:05:47.761Z,75.80
2017-08-26T22:08:14.421Z,75.40
2017-08-26T22:10:41.104Z,75.60
2017-08-26T22:13:07.798Z,75.40
2017-08-26T22:15:34.462Z,75.60
2017-08-26T22:18:01.150Z,75.80
2017-08-26T22:20:27.853Z,75.60
2017-08-26T22:22:54.522Z,75.60
2017-08-26T22:25:21.233Z,75.40
2017-08-26T22:27:47.906Z,75.60
2017-08-26T22:30:14.608Z,75.60
2017-08-26T22:32:41.282Z,75.60
2017-08-26T22:35:07.958Z,75.60
2017-08-26T22:37:34.633Z,75.40
2017-08-26T22:42:45.066Z,75.40
2017-08-26T22:45:11.742Z,75.40
2017-08-26T22:47:38.433Z,75.40
2017-08-26T22:50:05.119Z,75.30
2017-08-26T22:52:31.826Z,75.40
2017-08-26T22:54:58.493Z,75.30
2017-08-26T22:57:25.173Z,75.30
2017-08-26T22:59:51.847Z,75.10
2017-08-26T23:02:18.514Z,75.10
2017-08-26T23:04:45.186Z,75.10
2017-08-26T23:07:11.856Z,75.10
2017-08-26T23:12:27.311Z,74.90
2017-08-26T23:14:53.974Z,74.90
2017-08-26T23:17:21.045Z,74.80
2017-08-26T23:19:47.753Z,74.90
2017-08-26T23:22:14.525Z,74.80
2017-08-26T23:24:41.232Z,74.80
2017-08-26T23:27:07.911Z,74.80
2017-08-26T23:29:35.037Z,74.80
2017-08-26T23:32:01.710Z,74.80
2017-08-26T23:34:29.174Z,74.80
2017-08-26T23:36:55.841Z,74.80
2017-08-26T23:39:23.529Z,74.80
2017-08-26T23:41:50.246Z,74.80
2017-08-26T23:44:16.910Z,74.80
2017-08-26T23:46:43.609Z,74.60
2017-08-26T23:49:10.323Z,74.60
2017-08-26T23:51:37.003Z,74.60
2017-08-26T23:54:03.849Z,74.60
2017-08-26T23:56:30.530Z,74.40
2017-08-26T23:58:57.197Z,74.60
